sensor_id;sensor_type;location;lat;lon;timestamp;P1;durP1;ratioP1;P2;durP2;ratioP2
35919;SDS011;36160;53.370;-6.196;2022-12-20T00:01:12;20.30;;;4.30;;
35919;SDS011;36160;53.370;-6.196;2022-12-20T00:03:41;24.48;;;3.50;;
35919;SDS011;36160;53.370;-6.196;2022-12-20T00:06:08;25.48;;;3.83;;
35919;SDS011;36160;53.370;-6.196;2022-12-20T00:08:35;14.45;;;3.08;;
35919;SDS011;36160;53.370;-6.196;2022-12-20T00:11:02;22.50;;;3.67;;
35919;SDS011;36160;53.370;-6.196;2022-12-20T00:13:29;28.63;;;5.93;;
35919;SDS011;36160;53.370;-6.196;2022-12-20T00:16:28;26.75;;;4.30;;
35919;SDS011;36160;53.370;-6.196;2022-12-20T00:18:52;23.52;;;3.35;;
35919;SDS011;36160;53.370;-6.196;2022-12-20T00:23:46;22.15;;;3.80;;
35919;SDS011;36160;53.370;-6.196;2022-12-20T00:26:12;24.40;;;3.30;;
35919;SDS011;36160;53.370;-6.196;2022-12-20T00:28:43;20.73;;;5.05;;
35919;SDS011;36160;53.370;-6.196;2022-12-20T00:31:11;21.05;;;3.70;;
35919;SDS011;36160;53.370;-6.196;2022-12-20T00:33:38;17.70;;;4.30;;
35919;SDS011;36160;53.370;-6.196;2022-12-20T00:36:05;18.88;;;4.63;;
35919;SDS011;36160;53.370;-6.196;2022-12-20T00:38:31;25.88;;;4.35;;
35919;SDS011;36160;53.370;-6.196;2022-12-20T00:41:08;38.30;;;4.03;;
35919;SDS011;36160;53.370;-6.196;2022-12-20T00:43:36;19.52;;;3.92;;
35919;SDS011;36160;53.370;-6.196;2022-12-20T00:46:03;18.05;;;2.83;;
35919;SDS011;36160;53.370;-6.196;2022-12-20T00:48:29;26.88;;;3.70;;
35919;SDS011;36160;53.370;-6.196;2022-12-20T00:51:15;21.42;;;4.35;;
35919;SDS011;36160;53.370;-6.196;2022-12-20T00:53:41;30.23;;;3.75;;
35919;SDS011;36160;53.370;-6.196;2022-12-20T00:56:07;25.85;;;4.22;;
35919;SDS011;36160;53.370;-6.196;2022-12-20T00:58:37;17.25;;;3.95;;
35919;SDS011;36160;53.370;-6.196;2022-12-20T01:01:06;26.70;;;3.97;;
35919;SDS011;36160;53.370;-6.196;2022-12-20T01:03:38;25.35;;;5.82;;
35919;SDS011;36160;53.370;-6.196;2022-12-20T01:06:04;23.58;;;4.85;;
35919;SDS011;36160;53.370;-6.196;2022-12-20T01:08:30;39.80;;;6.53;;
35919;SDS011;36160;53.370;-6.196;2022-12-20T01:11:07;18.92;;;2.53;;
35919;SDS011;36160;53.370;-6.196;2022-12-20T01:13:42;39.03;;;4.22;;
35919;SDS011;36160;53.370;-6.196;2022-12-20T01:16:11;26.00;;;4.30;;
35919;SDS011;36160;53.370;-6.196;2022-12-20T01:18:48;18.50;;;4.78;;
35919;SDS011;36160;53.370;-6.196;2022-12-20T01:21:15;19.05;;;3.25;;
35919;SDS011;36160;53.370;-6.196;2022-12-20T01:23:42;25.50;;;3.85;;
35919;SDS011;36160;53.370;-6.196;2022-12-20T01:26:11;26.98;;;3.17;;
35919;SDS011;36160;53.370;-6.196;2022-12-20T01:28:39;23.13;;;3.35;;
35919;SDS011;36160;53.370;-6.196;2022-12-20T01:31:07;19.63;;;4.97;;
35919;SDS011;36160;53.370;-6.196;2022-12-20T01:33:35;26.38;;;6.05;;
35919;SDS011;36160;53.370;-6.196;2022-12-20T01:36:03;14.95;;;2.88;;
35919;SDS011;36160;53.370;-6.196;2022-12-20T01:38:30;18.33;;;3.63;;
35919;SDS011;36160;53.370;-6.196;2022-12-20T01:40:56;17.35;;;3.67;;
35919;SDS011;36160;53.370;-6.196;2022-12-20T01:43:22;32.33;;;6.32;;
35919;SDS011;36160;53.370;-6.196;2022-12-20T01:45:50;22.00;;;3.30;;
35919;SDS011;36160;53.370;-6.196;2022-12-20T01:48:17;25.17;;;3.63;;
35919;SDS011;36160;53.370;-6.196;2022-12-20T01:50:46;19.20;;;4.03;;
35919;SDS011;36160;53.370;-6.196;2022-12-20T01:53:14;23.02;;;4.57;;
35919;SDS011;36160;53.370;-6.196;2022-12-20T01:55:42;22.95;;;5.63;;
35919;SDS011;36160;53.370;-6.196;2022-12-20T01:58:09;26.00;;;4.75;;
35919;SDS011;36160;53.370;-6.196;2022-12-20T02:00:37;29.65;;;4.10;;
35919;SDS011;36160;53.370;-6.196;2022-12-20T02:03:06;32.35;;;4.20;;
35919;SDS011;36160;53.370;-6.196;2022-12-20T02:05:38;17.65;;;3.88;;
35919;SDS011;36160;53.370;-6.196;2022-12-20T02:08:06;31.25;;;4.72;;
35919;SDS011;36160;53.370;-6.196;2022-12-20T02:16:17;27.73;;;4.13;;
35919;SDS011;36160;53.370;-6.196;2022-12-20T02:18:51;23.75;;;3.47;;
35919;SDS011;36160;53.370;-6.196;2022-12-20T02:33:17;24.27;;;4.00;;
35919;SDS011;36160;53.370;-6.196;2022-12-20T02:35:28;35.28;;;5.63;;
35919;SDS011;36160;53.370;-6.196;2022-12-20T02:38:00;28.40;;;4.47;;
35919;SDS011;36160;53.370;-6.196;2022-12-20T02:40:32;28.00;;;4.40;;
35919;SDS011;36160;53.370;-6.196;2022-12-20T02:43:01;24.92;;;4.55;;
35919;SDS011;36160;53.370;-6.196;2022-12-20T02:45:50;27.42;;;4.45;;
35919;SDS011;36160;53.370;-6.196;2022-12-20T02:48:16;30.25;;;4.80;;
35919;SDS011;36160;53.370;-6.196;2022-12-20T02:50:44;22.70;;;4.50;;
35919;SDS011;36160;53.370;-6.196;2022-12-20T02:53:14;32.85;;;5.32;;
35919;SDS011;36160;53.370;-6.196;2022-12-20T02:55:42;45.33;;;6.65;;
35919;SDS011;36160;53.370;-6.196;2022-12-20T02:58:33;35.60;;;4.88;;
35919;SDS011;36160;53.370;-6.196;2022-12-20T03:01:28;27.13;;;5.40;;
35919;SDS011;36160;53.370;-6.196;2022-12-20T03:03:57;30.02;;;5.22;;
35919;SDS011;36160;53.370;-6.196;2022-12-20T03:06:24;32.28;;;5.75;;
35919;SDS011;36160;53.370;-6.196;2022-12-20T03:08:50;24.63;;;5.55;;
35919;SDS011;36160;53.370;-6.196;2022-12-20T03:11:15;27.88;;;4.47;;
35919;SDS011;36160;53.370;-6.196;2022-12-20T03:13:41;22.98;;;4.75;;
35919;SDS011;36160;53.370;-6.196;2022-12-20T03:16:07;26.58;;;4.50;;
35919;SDS011;36160;53.370;-6.196;2022-12-20T03:18:34;22.77;;;4.70;;
35919;SDS011;36160;53.370;-6.196;2022-12-20T03:21:00;28.67;;;7.38;;
35919;SDS011;36160;53.370;-6.196;2022-12-20T03:23:26;26.35;;;4.38;;
35919;SDS011;36160;53.370;-6.196;2022-12-20T03:25:51;19.98;;;3.45;;
35919;SDS011;36160;53.370;-6.196;2022-12-20T03:28:17;22.90;;;5.00;;
35919;SDS011;36160;53.370;-6.196;2022-12-20T03:30:43;22.60;;;4.72;;
35919;SDS011;36160;53.370;-6.196;2022-12-20T03:33:10;24.33;;;3.30;;
35919;SDS011;36160;53.370;-6.196;2022-12-20T03:35:35;24.85;;;4.22;;
35919;SDS011;36160;53.370;-6.196;2022-12-20T03:38:01;39.97;;;6.05;;
35919;SDS011;36160;53.370;-6.196;2022-12-20T03:40:26;33.83;;;6.18;;
35919;SDS011;36160;53.370;-6.196;2022-12-20T03:42:52;25.25;;;4.10;;
35919;SDS011;36160;53.370;-6.196;2022-12-20T03:45:18;24.67;;;5.00;;
35919;SDS011;36160;53.370;-6.196;2022-12-20T03:47:44;30.45;;;5.18;;
35919;SDS011;36160;53.370;-6.196;2022-12-20T03:50:09;21.90;;;5.18;;
35919;SDS011;36160;53.370;-6.196;2022-12-20T03:52:36;30.52;;;5.72;;
35919;SDS011;36160;53.370;-6.196;2022-12-20T03:55:01;33.53;;;6.03;;
35919;SDS011;36160;53.370;-6.196;2022-12-20T03:57:28;21.42;;;4.80;;
35919;SDS011;36160;53.370;-6.196;2022-12-20T03:59:54;33.80;;;5.85;;
35919;SDS011;36160;53.370;-6.196;2022-12-20T04:02:20;31.17;;;5.68;;
35919;SDS011;36160;53.370;-6.196;2022-12-20T04:04:46;31.48;;;5.78;;
35919;SDS011;36160;53.370;-6.196;2022-12-20T04:07:12;34.03;;;6.03;;
35919;SDS011;36160;53.370;-6.196;2022-12-20T04:09:38;39.80;;;6.45;;
35919;SDS011;36160;53.370;-6.196;2022-12-20T04:12:04;36.17;;;5.07;;
35919;SDS011;36160;53.370;-6.196;2022-12-20T04:14:31;21.55;;;4.18;;
35919;SDS011;36160;53.370;-6.196;2022-12-20T04:16:57;21.48;;;3.72;;
35919;SDS011;36160;53.370;-6.196;2022-12-20T04:19:23;31.98;;;4.85;;
35919;SDS011;36160;53.370;-6.196;2022-12-20T04:21:48;29.90;;;3.08;;
35919;SDS011;36160;53.370;-6.196;2022-12-20T04:24:14;32.88;;;7.13;;
35919;SDS011;36160;53.370;-6.196;2022-12-20T04:26:40;32.13;;;5.13;;
35919;SDS011;36160;53.370;-6.196;2022-12-20T04:29:06;27.52;;;4.65;;
35919;SDS011;36160;53.370;-6.196;2022-12-20T04:31:31;32.13;;;5.65;;
35919;SDS011;36160;53.370;-6.196;2022-12-20T04:33:57;25.02;;;3.63;;
35919;SDS011;36160;53.370;-6.196;2022-12-20T04:36:23;31.25;;;5.05;;
35919;SDS011;36160;53.370;-6.196;2022-12-20T04:38:49;25.52;;;5.30;;
35919;SDS011;36160;53.370;-6.196;2022-12-20T04:41:14;20.15;;;2.95;;
35919;SDS011;36160;53.370;-6.196;2022-12-20T04:46:29;29.20;;;4.10;;
35919;SDS011;36160;53.370;-6.196;2022-12-20T04:48:55;18.35;;;3.78;;
35919;SDS011;36160;53.370;-6.196;2022-12-20T04:51:21;17.55;;;3.45;;
35919;SDS011;36160;53.370;-6.196;2022-12-20T04:53:46;21.42;;;3.88;;
35919;SDS011;36160;53.370;-6.196;2022-12-20T04:56:16;33.53;;;4.57;;
35919;SDS011;36160;53.370;-6.196;2022-12-20T04:58:45;18.92;;;3.13;;
35919;SDS011;36160;53.370;-6.196;2022-12-20T05:01:12;18.10;;;2.80;;
35919;SDS011;36160;53.370;-6.196;2022-12-20T05:03:38;20.30;;;3.72;;
35919;SDS011;36160;53.370;-6.196;2022-12-20T05:06:04;18.52;;;3.20;;
35919;SDS011;36160;53.370;-6.196;2022-12-20T05:08:30;23.23;;;3.08;;
35919;SDS011;36160;53.370;-6.196;2022-12-20T05:10:56;15.45;;;3.00;;
35919;SDS011;36160;53.370;-6.196;2022-12-20T05:13:22;17.23;;;2.72;;
35919;SDS011;36160;53.370;-6.196;2022-12-20T05:15:51;17.92;;;3.05;;
35919;SDS011;36160;53.370;-6.196;2022-12-20T05:18:19;15.48;;;3.78;;
35919;SDS011;36160;53.370;-6.196;2022-12-20T05:20:45;12.63;;;2.72;;
35919;SDS011;36160;53.370;-6.196;2022-12-20T05:23:11;18.10;;;3.67;;
35919;SDS011;36160;53.370;-6.196;2022-12-20T05:25:56;20.85;;;3.53;;
35919;SDS011;36160;53.370;-6.196;2022-12-20T05:28:40;17.70;;;3.30;;
35919;SDS011;36160;53.370;-6.196;2022-12-20T05:31:05;20.67;;;4.00;;
35919;SDS011;36160;53.370;-6.196;2022-12-20T05:33:31;19.33;;;3.63;;
35919;SDS011;36160;53.370;-6.196;2022-12-20T05:35:57;12.60;;;2.72;;
35919;SDS011;36160;53.370;-6.196;2022-12-20T05:38:23;25.08;;;2.88;;
35919;SDS011;36160;53.370;-6.196;2022-12-20T05:40:49;18.98;;;4.20;;
35919;SDS011;36160;53.370;-6.196;2022-12-20T05:43:16;17.23;;;2.20;;
35919;SDS011;36160;53.370;-6.196;2022-12-20T05:45:46;29.65;;;4.93;;
35919;SDS011;36160;53.370;-6.196;2022-12-20T05:48:14;21.58;;;4.68;;
35919;SDS011;36160;53.370;-6.196;2022-12-20T05:50:41;23.08;;;3.45;;
35919;SDS011;36160;53.370;-6.196;2022-12-20T05:53:09;13.23;;;2.30;;
35919;SDS011;36160;53.370;-6.196;2022-12-20T05:55:35;17.13;;;3.40;;
35919;SDS011;36160;53.370;-6.196;2022-12-20T05:58:01;17.65;;;4.13;;
35919;SDS011;36160;53.370;-6.196;2022-12-20T06:00:27;14.43;;;2.63;;
35919;SDS011;36160;53.370;-6.196;2022-12-20T06:02:53;14.98;;;3.05;;
35919;SDS011;36160;53.370;-6.196;2022-12-20T06:05:18;20.40;;;3.78;;
35919;SDS011;36160;53.370;-6.196;2022-12-20T06:07:44;21.13;;;4.03;;
35919;SDS011;36160;53.370;-6.196;2022-12-20T06:10:10;14.60;;;3.00;;
35919;SDS011;36160;53.370;-6.196;2022-12-20T06:12:35;18.45;;;3.88;;
35919;SDS011;36160;53.370;-6.196;2022-12-20T06:15:01;14.80;;;3.03;;
35919;SDS011;36160;53.370;-6.196;2022-12-20T06:17:27;22.30;;;4.05;;
35919;SDS011;36160;53.370;-6.196;2022-12-20T06:19:53;17.90;;;3.13;;
35919;SDS011;36160;53.370;-6.196;2022-12-20T06:22:19;16.85;;;2.63;;
35919;SDS011;36160;53.370;-6.196;2022-12-20T06:24:44;15.38;;;2.55;;
35919;SDS011;36160;53.370;-6.196;2022-12-20T06:27:10;16.15;;;2.95;;
35919;SDS011;36160;53.370;-6.196;2022-12-20T06:29:36;11.18;;;2.45;;
35919;SDS011;36160;53.370;-6.196;2022-12-20T06:32:01;29.15;;;4.57;;
35919;SDS011;36160;53.370;-6.196;2022-12-20T06:34:29;16.27;;;2.40;;
35919;SDS011;36160;53.370;-6.196;2022-12-20T06:36:55;17.20;;;2.75;;
35919;SDS011;36160;53.370;-6.196;2022-12-20T06:39:21;20.02;;;3.20;;
35919;SDS011;36160;53.370;-6.196;2022-12-20T06:41:47;10.27;;;1.98;;
35919;SDS011;36160;53.370;-6.196;2022-12-20T06:44:12;16.13;;;2.55;;
35919;SDS011;36160;53.370;-6.196;2022-12-20T06:46:38;24.90;;;4.35;;
35919;SDS011;36160;53.370;-6.196;2022-12-20T06:49:04;12.88;;;3.00;;
35919;SDS011;36160;53.370;-6.196;2022-12-20T06:51:29;11.90;;;2.40;;
35919;SDS011;36160;53.370;-6.196;2022-12-20T06:53:55;18.40;;;2.88;;
35919;SDS011;36160;53.370;-6.196;2022-12-20T06:56:20;22.02;;;2.75;;
35919;SDS011;36160;53.370;-6.196;2022-12-20T06:58:46;17.42;;;3.75;;
35919;SDS011;36160;53.370;-6.196;2022-12-20T07:01:12;18.33;;;2.88;;
35919;SDS011;36160;53.370;-6.196;2022-12-20T07:03:37;9.95;;;2.40;;
35919;SDS011;36160;53.370;-6.196;2022-12-20T07:06:03;16.65;;;2.20;;
35919;SDS011;36160;53.370;-6.196;2022-12-20T07:08:30;15.98;;;2.50;;
35919;SDS011;36160;53.370;-6.196;2022-12-20T07:10:57;10.85;;;3.53;;
35919;SDS011;36160;53.370;-6.196;2022-12-20T07:13:28;15.18;;;2.58;;
35919;SDS011;36160;53.370;-6.196;2022-12-20T07:15:58;12.50;;;2.40;;
35919;SDS011;36160;53.370;-6.196;2022-12-20T07:18:24;14.82;;;2.28;;
35919;SDS011;36160;53.370;-6.196;2022-12-20T07:20:50;13.38;;;1.98;;
35919;SDS011;36160;53.370;-6.196;2022-12-20T07:23:16;14.07;;;2.28;;
35919;SDS011;36160;53.370;-6.196;2022-12-20T07:25:42;17.25;;;3.78;;
35919;SDS011;36160;53.370;-6.196;2022-12-20T07:28:16;17.08;;;2.13;;
35919;SDS011;36160;53.370;-6.196;2022-12-20T07:30:41;14.95;;;3.40;;
35919;SDS011;36160;53.370;-6.196;2022-12-20T07:33:07;14.73;;;3.85;;
35919;SDS011;36160;53.370;-6.196;2022-12-20T07:35:33;14.48;;;2.55;;
35919;SDS011;36160;53.370;-6.196;2022-12-20T07:37:58;15.23;;;2.00;;
35919;SDS011;36160;53.370;-6.196;2022-12-20T07:40:24;14.63;;;2.70;;
35919;SDS011;36160;53.370;-6.196;2022-12-20T07:42:50;18.75;;;4.30;;
35919;SDS011;36160;53.370;-6.196;2022-12-20T07:45:15;13.30;;;2.35;;
35919;SDS011;36160;53.370;-6.196;2022-12-20T07:47:41;20.02;;;3.00;;
35919;SDS011;36160;53.370;-6.196;2022-12-20T07:50:07;19.83;;;3.83;;
35919;SDS011;36160;53.370;-6.196;2022-12-20T07:52:34;17.23;;;2.45;;
35919;SDS011;36160;53.370;-6.196;2022-12-20T07:55:00;10.23;;;2.40;;
35919;SDS011;36160;53.370;-6.196;2022-12-20T07:57:36;11.90;;;2.20;;
35919;SDS011;36160;53.370;-6.196;2022-12-20T08:00:07;12.57;;;2.65;;
35919;SDS011;36160;53.370;-6.196;2022-12-20T08:02:36;17.52;;;3.67;;
35919;SDS011;36160;53.370;-6.196;2022-12-20T08:05:06;10.30;;;2.63;;
35919;SDS011;36160;53.370;-6.196;2022-12-20T08:07:33;16.40;;;2.42;;
35919;SDS011;36160;53.370;-6.196;2022-12-20T08:10:02;15.38;;;2.67;;
35919;SDS011;36160;53.370;-6.196;2022-12-20T08:12:29;10.98;;;3.72;;
35919;SDS011;36160;53.370;-6.196;2022-12-20T08:14:56;17.83;;;1.98;;
35919;SDS011;36160;53.370;-6.196;2022-12-20T08:17:22;11.27;;;1.77;;
35919;SDS011;36160;53.370;-6.196;2022-12-20T08:19:48;12.38;;;2.70;;
35919;SDS011;36160;53.370;-6.196;2022-12-20T08:22:16;20.30;;;2.58;;
35919;SDS011;36160;53.370;-6.196;2022-12-20T08:24:43;9.88;;;1.77;;
35919;SDS011;36160;53.370;-6.196;2022-12-20T08:27:09;19.35;;;2.97;;
35919;SDS011;36160;53.370;-6.196;2022-12-20T08:29:35;22.25;;;3.30;;
35919;SDS011;36160;53.370;-6.196;2022-12-20T08:32:00;6.72;;;1.60;;
35919;SDS011;36160;53.370;-6.196;2022-12-20T08:34:26;15.70;;;2.75;;
35919;SDS011;36160;53.370;-6.196;2022-12-20T08:36:52;13.75;;;2.67;;
35919;SDS011;36160;53.370;-6.196;2022-12-20T08:39:19;10.30;;;2.65;;
35919;SDS011;36160;53.370;-6.196;2022-12-20T08:41:45;13.88;;;2.30;;
35919;SDS011;36160;53.370;-6.196;2022-12-20T08:44:10;13.40;;;2.45;;
35919;SDS011;36160;53.370;-6.196;2022-12-20T08:46:37;11.20;;;2.50;;
35919;SDS011;36160;53.370;-6.196;2022-12-20T08:49:03;23.65;;;3.05;;
35919;SDS011;36160;53.370;-6.196;2022-12-20T08:51:29;13.18;;;3.22;;
35919;SDS011;36160;53.370;-6.196;2022-12-20T08:53:55;18.08;;;3.22;;
35919;SDS011;36160;53.370;-6.196;2022-12-20T08:56:20;15.40;;;4.75;;
35919;SDS011;36160;53.370;-6.196;2022-12-20T08:58:47;15.20;;;2.80;;
35919;SDS011;36160;53.370;-6.196;2022-12-20T09:01:14;16.50;;;2.45;;
35919;SDS011;36160;53.370;-6.196;2022-12-20T09:03:44;17.10;;;3.33;;
35919;SDS011;36160;53.370;-6.196;2022-12-20T09:06:14;12.85;;;2.30;;
35919;SDS011;36160;53.370;-6.196;2022-12-20T09:08:43;14.35;;;2.40;;
35919;SDS011;36160;53.370;-6.196;2022-12-20T09:11:13;11.95;;;2.10;;
35919;SDS011;36160;53.370;-6.196;2022-12-20T09:13:43;14.07;;;2.45;;
35919;SDS011;36160;53.370;-6.196;2022-12-20T09:16:11;11.50;;;2.58;;
35919;SDS011;36160;53.370;-6.196;2022-12-20T09:18:38;15.55;;;2.42;;
35919;SDS011;36160;53.370;-6.196;2022-12-20T09:21:05;16.55;;;2.67;;
35919;SDS011;36160;53.370;-6.196;2022-12-20T09:23:33;27.23;;;4.50;;
35919;SDS011;36160;53.370;-6.196;2022-12-20T09:26:00;14.40;;;3.13;;
35919;SDS011;36160;53.370;-6.196;2022-12-20T09:28:28;19.30;;;2.95;;
35919;SDS011;36160;53.370;-6.196;2022-12-20T09:30:58;22.58;;;3.33;;
35919;SDS011;36160;53.370;-6.196;2022-12-20T09:33:28;15.90;;;4.45;;
35919;SDS011;36160;53.370;-6.196;2022-12-20T09:35:54;16.17;;;2.47;;
35919;SDS011;36160;53.370;-6.196;2022-12-20T09:38:21;21.63;;;2.70;;
35919;SDS011;36160;53.370;-6.196;2022-12-20T09:40:47;18.90;;;3.00;;
35919;SDS011;36160;53.370;-6.196;2022-12-20T09:43:15;17.08;;;2.63;;
35919;SDS011;36160;53.370;-6.196;2022-12-20T09:45:41;9.48;;;2.00;;
35919;SDS011;36160;53.370;-6.196;2022-12-20T09:48:21;11.07;;;1.95;;
35919;SDS011;36160;53.370;-6.196;2022-12-20T10:01:21;24.55;;;4.18;;
35919;SDS011;36160;53.370;-6.196;2022-12-20T10:03:49;13.70;;;3.45;;
35919;SDS011;36160;53.370;-6.196;2022-12-20T10:09:12;19.80;;;3.92;;
35919;SDS011;36160;53.370;-6.196;2022-12-20T10:11:52;16.23;;;3.38;;
35919;SDS011;36160;53.370;-6.196;2022-12-20T10:20:03;13.45;;;2.70;;
35919;SDS011;36160;53.370;-6.196;2022-12-20T10:22:53;16.50;;;2.90;;
35919;SDS011;36160;53.370;-6.196;2022-12-20T10:25:41;16.52;;;3.33;;
35919;SDS011;36160;53.370;-6.196;2022-12-20T10:28:15;19.55;;;3.63;;
35919;SDS011;36160;53.370;-6.196;2022-12-20T10:30:41;26.02;;;3.45;;
35919;SDS011;36160;53.370;-6.196;2022-12-20T10:33:18;16.75;;;2.88;;
35919;SDS011;36160;53.370;-6.196;2022-12-20T10:35:51;18.98;;;3.88;;
35919;SDS011;36160;53.370;-6.196;2022-12-20T10:38:17;13.43;;;2.53;;
35919;SDS011;36160;53.370;-6.196;2022-12-20T10:40:46;18.70;;;4.75;;
35919;SDS011;36160;53.370;-6.196;2022-12-20T10:43:23;18.58;;;3.92;;
35919;SDS011;36160;53.370;-6.196;2022-12-20T10:46:05;18.95;;;2.45;;
35919;SDS011;36160;53.370;-6.196;2022-12-20T10:48:39;22.58;;;4.10;;
35919;SDS011;36160;53.370;-6.196;2022-12-20T10:54:19;17.55;;;3.13;;
35919;SDS011;36160;53.370;-6.196;2022-12-20T10:56:34;18.77;;;3.03;;
35919;SDS011;36160;53.370;-6.196;2022-12-20T11:01:43;21.08;;;2.83;;
35919;SDS011;36160;53.370;-6.196;2022-12-20T11:04:27;66.22;;;6.00;;
35919;SDS011;36160;53.370;-6.196;2022-12-20T11:06:59;19.77;;;3.90;;
35919;SDS011;36160;53.370;-6.196;2022-12-20T11:09:30;16.77;;;2.67;;
35919;SDS011;36160;53.370;-6.196;2022-12-20T11:12:15;17.70;;;3.17;;
35919;SDS011;36160;53.370;-6.196;2022-12-20T11:14:42;19.23;;;3.75;;
35919;SDS011;36160;53.370;-6.196;2022-12-20T11:38:57;33.88;;;6.07;;
35919;SDS011;36160;53.370;-6.196;2022-12-20T11:50:01;17.17;;;3.78;;
35919;SDS011;36160;53.370;-6.196;2022-12-20T11:55:17;23.85;;;4.18;;
35919;SDS011;36160;53.370;-6.196;2022-12-20T11:57:58;24.63;;;4.93;;
35919;SDS011;36160;53.370;-6.196;2022-12-20T12:00:33;28.90;;;4.05;;
35919;SDS011;36160;53.370;-6.196;2022-12-20T12:03:09;28.83;;;5.73;;
35919;SDS011;36160;53.370;-6.196;2022-12-20T12:05:44;22.13;;;3.40;;
35919;SDS011;36160;53.370;-6.196;2022-12-20T12:08:30;21.70;;;5.03;;
35919;SDS011;36160;53.370;-6.196;2022-12-20T12:11:04;17.42;;;3.55;;
35919;SDS011;36160;53.370;-6.196;2022-12-20T12:13:40;30.15;;;3.55;;
35919;SDS011;36160;53.370;-6.196;2022-12-20T12:18:42;21.67;;;3.63;;
35919;SDS011;36160;53.370;-6.196;2022-12-20T12:26:36;19.25;;;3.15;;
35919;SDS011;36160;53.370;-6.196;2022-12-20T12:31:43;22.30;;;3.83;;
35919;SDS011;36160;53.370;-6.196;2022-12-20T12:45:02;17.70;;;3.85;;
35919;SDS011;36160;53.370;-6.196;2022-12-20T12:50:35;19.20;;;4.15;;
35919;SDS011;36160;53.370;-6.196;2022-12-20T12:55:51;24.20;;;3.78;;
35919;SDS011;36160;53.370;-6.196;2022-12-20T13:11:33;17.55;;;3.03;;
35919;SDS011;36160;53.370;-6.196;2022-12-20T13:16:49;14.82;;;3.30;;
35919;SDS011;36160;53.370;-6.196;2022-12-20T13:24:46;23.92;;;3.40;;
35919;SDS011;36160;53.370;-6.196;2022-12-20T13:27:37;19.40;;;3.15;;
35919;SDS011;36160;53.370;-6.196;2022-12-20T13:32:56;17.40;;;3.67;;
35919;SDS011;36160;53.370;-6.196;2022-12-20T13:38:38;18.13;;;3.35;;
35919;SDS011;36160;53.370;-6.196;2022-12-20T13:44:21;19.17;;;5.75;;
35919;SDS011;36160;53.370;-6.196;2022-12-20T13:47:11;25.38;;;5.05;;
35919;SDS011;36160;53.370;-6.196;2022-12-20T13:50:23;21.85;;;5.07;;
35919;SDS011;36160;53.370;-6.196;2022-12-20T13:53:19;17.52;;;4.95;;
35919;SDS011;36160;53.370;-6.196;2022-12-20T13:55:51;21.23;;;2.92;;
35919;SDS011;36160;53.370;-6.196;2022-12-20T13:58:25;24.53;;;4.23;;
35919;SDS011;36160;53.370;-6.196;2022-12-20T14:01:10;24.10;;;4.85;;
35919;SDS011;36160;53.370;-6.196;2022-12-20T14:03:54;14.90;;;4.40;;
35919;SDS011;36160;53.370;-6.196;2022-12-20T14:06:22;22.67;;;7.57;;
35919;SDS011;36160;53.370;-6.196;2022-12-20T14:09:02;18.90;;;4.65;;
35919;SDS011;36160;53.370;-6.196;2022-12-20T14:12:01;23.77;;;7.60;;
35919;SDS011;36160;53.370;-6.196;2022-12-20T14:14:28;18.63;;;4.65;;
35919;SDS011;36160;53.370;-6.196;2022-12-20T14:16:53;54.50;;;17.13;;
35919;SDS011;36160;53.370;-6.196;2022-12-20T14:19:19;42.13;;;13.32;;
35919;SDS011;36160;53.370;-6.196;2022-12-20T14:21:46;29.45;;;11.85;;
35919;SDS011;36160;53.370;-6.196;2022-12-20T14:24:16;40.20;;;16.50;;
35919;SDS011;36160;53.370;-6.196;2022-12-20T14:26:50;27.05;;;10.75;;
35919;SDS011;36160;53.370;-6.196;2022-12-20T14:29:18;24.98;;;8.73;;
35919;SDS011;36160;53.370;-6.196;2022-12-20T14:31:53;24.25;;;7.28;;
35919;SDS011;36160;53.370;-6.196;2022-12-20T14:34:23;14.30;;;3.38;;
35919;SDS011;36160;53.370;-6.196;2022-12-20T14:36:54;23.25;;;3.75;;
35919;SDS011;36160;53.370;-6.196;2022-12-20T14:42:49;14.85;;;4.25;;
35919;SDS011;36160;53.370;-6.196;2022-12-20T14:45:17;19.30;;;3.53;;
35919;SDS011;36160;53.370;-6.196;2022-12-20T14:47:58;20.65;;;3.28;;
35919;SDS011;36160;53.370;-6.196;2022-12-20T14:50:28;9.88;;;3.35;;
35919;SDS011;36160;53.370;-6.196;2022-12-20T14:52:56;13.73;;;4.88;;
35919;SDS011;36160;53.370;-6.196;2022-12-20T14:55:27;19.33;;;3.30;;
35919;SDS011;36160;53.370;-6.196;2022-12-20T14:57:56;11.32;;;2.75;;
35919;SDS011;36160;53.370;-6.196;2022-12-20T15:00:27;19.65;;;3.28;;
35919;SDS011;36160;53.370;-6.196;2022-12-20T15:05:34;17.42;;;3.35;;
35919;SDS011;36160;53.370;-6.196;2022-12-20T15:10:38;16.75;;;3.63;;
35919;SDS011;36160;53.370;-6.196;2022-12-20T15:13:15;12.25;;;3.83;;
35919;SDS011;36160;53.370;-6.196;2022-12-20T15:15:43;17.52;;;3.03;;
35919;SDS011;36160;53.370;-6.196;2022-12-20T15:18:12;17.30;;;4.15;;
35919;SDS011;36160;53.370;-6.196;2022-12-20T15:20:40;19.60;;;2.90;;
35919;SDS011;36160;53.370;-6.196;2022-12-20T15:23:14;15.77;;;3.42;;
35919;SDS011;36160;53.370;-6.196;2022-12-20T15:25:41;15.45;;;2.65;;
35919;SDS011;36160;53.370;-6.196;2022-12-20T15:28:21;15.10;;;3.35;;
35919;SDS011;36160;53.370;-6.196;2022-12-20T15:30:48;16.75;;;2.45;;
35919;SDS011;36160;53.370;-6.196;2022-12-20T15:33:16;18.35;;;3.00;;
35919;SDS011;36160;53.370;-6.196;2022-12-20T15:35:54;24.73;;;4.85;;
35919;SDS011;36160;53.370;-6.196;2022-12-20T15:38:21;13.52;;;2.42;;
35919;SDS011;36160;53.370;-6.196;2022-12-20T15:40:50;18.90;;;3.00;;
35919;SDS011;36160;53.370;-6.196;2022-12-20T15:43:19;15.15;;;3.38;;
35919;SDS011;36160;53.370;-6.196;2022-12-20T15:45:51;19.20;;;3.33;;
35919;SDS011;36160;53.370;-6.196;2022-12-20T15:48:21;19.83;;;3.03;;
35919;SDS011;36160;53.370;-6.196;2022-12-20T15:50:57;15.25;;;3.60;;
35919;SDS011;36160;53.370;-6.196;2022-12-20T15:53:27;20.63;;;4.10;;
35919;SDS011;36160;53.370;-6.196;2022-12-20T15:55:57;19.83;;;4.38;;
35919;SDS011;36160;53.370;-6.196;2022-12-20T15:58:23;15.20;;;3.90;;
35919;SDS011;36160;53.370;-6.196;2022-12-20T16:00:56;18.70;;;2.67;;
35919;SDS011;36160;53.370;-6.196;2022-12-20T16:03:29;10.57;;;3.05;;
35919;SDS011;36160;53.370;-6.196;2022-12-20T16:05:56;13.85;;;2.70;;
35919;SDS011;36160;53.370;-6.196;2022-12-20T16:08:24;21.58;;;4.57;;
35919;SDS011;36160;53.370;-6.196;2022-12-20T16:10:50;23.92;;;4.90;;
35919;SDS011;36160;53.370;-6.196;2022-12-20T16:13:20;16.27;;;3.08;;
35919;SDS011;36160;53.370;-6.196;2022-12-20T16:15:47;17.27;;;4.25;;
35919;SDS011;36160;53.370;-6.196;2022-12-20T16:18:14;27.75;;;3.72;;
35919;SDS011;36160;53.370;-6.196;2022-12-20T16:20:40;20.42;;;3.20;;
35919;SDS011;36160;53.370;-6.196;2022-12-20T16:23:16;18.55;;;3.80;;
35919;SDS011;36160;53.370;-6.196;2022-12-20T16:25:44;11.80;;;2.80;;
35919;SDS011;36160;53.370;-6.196;2022-12-20T16:28:10;17.70;;;3.90;;
35919;SDS011;36160;53.370;-6.196;2022-12-20T16:30:36;13.43;;;3.63;;
35919;SDS011;36160;53.370;-6.196;2022-12-20T16:33:02;18.73;;;3.22;;
35919;SDS011;36160;53.370;-6.196;2022-12-20T16:35:31;14.35;;;3.60;;
35919;SDS011;36160;53.370;-6.196;2022-12-20T16:38:01;11.73;;;2.63;;
35919;SDS011;36160;53.370;-6.196;2022-12-20T16:40:28;25.60;;;4.65;;
35919;SDS011;36160;53.370;-6.196;2022-12-20T16:42:56;13.43;;;3.00;;
35919;SDS011;36160;53.370;-6.196;2022-12-20T16:45:23;19.50;;;3.63;;
35919;SDS011;36160;53.370;-6.196;2022-12-20T16:47:51;13.00;;;3.33;;
35919;SDS011;36160;53.370;-6.196;2022-12-20T16:50:17;12.20;;;2.65;;
35919;SDS011;36160;53.370;-6.196;2022-12-20T16:52:45;14.20;;;3.45;;
35919;SDS011;36160;53.370;-6.196;2022-12-20T16:55:29;9.70;;;2.42;;
35919;SDS011;36160;53.370;-6.196;2022-12-20T16:57:55;21.33;;;4.10;;
35919;SDS011;36160;53.370;-6.196;2022-12-20T17:00:22;17.45;;;2.97;;